Airfield :
LOGIN :

Register | Disclaimer

   EN    FR    IT 

 










Legend :    VFR   Marginal VFR   IFR   Intensive IFR   Very Intensive IFR
Visi :
Ceiling :
>= 8 km
>= 3000ft
5 to 8 km
1000 to 3000 ft
1500m to 5 km
500 to 1000 ft
800 to 1500m
200 to 500 ft
< 800m
< 200 ft
Symbols :   Thunderstorms  Fog  Heavy snow  Heavy precipitations  Wind > 20 kt
SIGMETs :     Misc.  Thunderstorms  Icing  Turbulence  Mountain Waves  Volcanic Ashes






- Airport Elevation : 499 ft
- IATA code : TLS


LFBO - Toulouse / Blagnac

CURRENT METAR :
  • 291200Z AUTO 26015KT 230V290 9999 FEW021/// SCT035/// BKN052/// ///TCU 16/12 Q1004 TEMPO 4000 SHRA BKN012TCU BKN025

EXPIRED METARs :
  • 291130Z AUTO 27011KT 230V320 9999 SCT019/// BKN024/// BKN033/// //////CB 16/12 Q1004 TEMPO 4000 SHRA BKN012TCU BKN050
  • 291100Z AUTO 26010KT 9999 SCT022/// SCT037/// BKN044/// ///TCU 16/12 Q1004 TEMPO 4000 SHRA BKN012TCU BKN050
  • 291030Z AUTO 26011KT 9999 SCT019/// BKN024/// BKN033/// ///TCU 16/12 Q1004 TEMPO 4000 SHRA BKN012TCU BKN050
  • 291000Z AUTO 26011KT 9999 SCT018 BKN029 BKN039 16/12 Q1004 TEMPO 4000 SHRA BKN012TCU BKN050
  • 290930Z AUTO 28011KT 240V300 9999 BKN014 BKN020 BKN025 16/12 Q1004 TEMPO 4000 SHRA BKN012TCU BKN050

TAF TAF LFBO
Valid from the 29 at 12:00 until the 30 at 18:00 UTC


291100Z 2912/3018 27012KT 9999 SCT017 BKN035
TEMPO 2912/2916 4000 SHRA BKN012TCU BKN025
TEMPO 2916/2920 2000 RA BKN013 SCT020CB
BECMG 2920/2922 BKN040
BECMG 3000/3002 29007KT
BECMG 3003/3005 BKN007
PROB30
TEMPO 3005/3008 4000 BR BKN003
BECMG 3009/3011 BKN018
BECMG 3012/3014 BKN040
ATIS : +33 5 62 74 66 36



MET'MAP, your aeronautical weather chart ! - Copyright ORBIFLY December 2007 - Disclaimer

ORBIFLY MET'MAP TEAM :

Programming & Development : Alexandra Zaïnal
Original concept : Baudouin d'Aumeries
Technical & hardware support : Manuel Goepfert
Assistance : Marc-Olivier Méhu




SOURCES & CREDITS :

   NOAA